createdAt,value
2019-03-15T00:00:49.944Z,4.78
2019-03-15T00:03:20.106Z,4.79
2019-03-15T00:05:50.324Z,4.78
2019-03-15T00:08:20.564Z,4.76
2019-03-15T00:10:51.826Z,4.74
2019-03-15T00:13:21.991Z,4.71
2019-03-15T00:15:52.167Z,4.69
2019-03-15T00:18:22.515Z,4.67
2019-03-15T00:20:52.810Z,4.68
2019-03-15T00:23:24.657Z,4.68
2019-03-15T00:25:55.524Z,4.68
2019-03-15T00:28:26.063Z,4.68
2019-03-15T00:30:56.320Z,4.69
2019-03-15T00:33:26.615Z,4.70
2019-03-15T00:35:56.762Z,4.72
2019-03-15T00:38:27.195Z,4.73
2019-03-15T00:40:57.341Z,4.75
2019-03-15T00:43:27.629Z,4.74
2019-03-15T00:45:57.833Z,4.77
2019-03-15T00:48:28.771Z,4.77
2019-03-15T00:50:58.954Z,4.79
2019-03-15T00:53:29.931Z,4.80
2019-03-15T00:56:00.245Z,4.83
2019-03-15T00:58:30.533Z,4.85
2019-03-15T01:01:01.541Z,4.87
2019-03-15T01:03:31.791Z,4.88
2019-03-15T01:06:02.038Z,4.90
2019-03-15T01:08:32.214Z,4.92
2019-03-15T01:11:02.422Z,4.95
2019-03-15T01:13:32.690Z,4.95
2019-03-15T01:16:05.221Z,4.96
2019-03-15T01:18:35.493Z,4.98
2019-03-15T01:21:05.802Z,5.00
2019-03-15T01:23:35.961Z,5.01
2019-03-15T01:26:06.419Z,5.03
2019-03-15T01:28:36.540Z,5.03
2019-03-15T01:31:07.707Z,5.03
2019-03-15T01:33:39.465Z,5.04
2019-03-15T01:36:10.383Z,5.04
2019-03-15T01:38:40.630Z,5.04
2019-03-15T01:41:10.781Z,5.05
2019-03-15T01:43:40.990Z,5.05
2019-03-15T01:46:12.067Z,5.04
2019-03-15T01:48:42.672Z,5.04
2019-03-15T01:51:12.882Z,5.04
2019-03-15T01:53:44.914Z,5.06
2019-03-15T01:56:15.244Z,5.06
2019-03-15T01:58:45.550Z,5.08
2019-03-15T02:01:15.678Z,5.08
2019-03-15T02:03:45.872Z,5.08
2019-03-15T02:06:17.469Z,5.06
2019-03-15T02:08:48.461Z,5.00
2019-03-15T02:11:18.721Z,5.03
2019-03-15T02:13:49.819Z,5.01
2019-03-15T02:16:20.170Z,4.96
2019-03-15T02:18:52.102Z,4.92
2019-03-15T02:21:22.239Z,4.87
2019-03-15T02:23:52.536Z,4.87
2019-03-15T02:26:24.389Z,4.87
2019-03-15T02:28:54.536Z,4.86
2019-03-15T02:31:26.136Z,4.82
2019-03-15T02:33:57.446Z,4.81
2019-03-15T02:36:27.679Z,4.81
2019-03-15T02:38:57.807Z,4.81
2019-03-15T02:41:29.536Z,4.83
2019-03-15T02:43:59.934Z,4.85
2019-03-15T02:46:30.341Z,4.85
2019-03-15T02:49:00.469Z,4.86
2019-03-15T02:51:30.605Z,4.87
2019-03-15T02:54:01.451Z,4.89
2019-03-15T02:56:31.636Z,4.89
2019-03-15T02:59:03.322Z,4.88
2019-03-15T03:01:33.980Z,4.87
2019-03-15T03:04:05.205Z,4.87
2019-03-15T03:06:36.206Z,4.85
2019-03-15T03:09:08.508Z,4.83
2019-03-15T03:11:39.156Z,4.81
2019-03-15T03:14:11.011Z,4.78
2019-03-15T03:16:41.257Z,4.75
2019-03-15T03:19:13.004Z,4.71
2019-03-15T03:21:43.217Z,4.66
2019-03-15T03:24:13.374Z,4.62
2019-03-15T03:26:43.508Z,4.58
2019-03-15T03:29:13.746Z,4.58
2019-03-15T03:31:45.598Z,4.55
2019-03-15T03:34:16.352Z,4.55
2019-03-15T03:36:46.653Z,4.52
2019-03-15T03:39:16.800Z,4.51
2019-03-15T03:41:47.174Z,4.51
2019-03-15T03:44:19.163Z,4.51
2019-03-15T03:46:50.087Z,4.53
2019-03-15T03:49:20.255Z,4.54
2019-03-15T03:51:50.437Z,4.53
2019-03-15T03:54:20.597Z,4.53
2019-03-15T03:56:51.817Z,4.53
2019-03-15T03:59:22.159Z,4.52
2019-03-15T04:01:52.424Z,4.52
2019-03-15T04:04:22.771Z,4.52
2019-03-15T04:06:53.330Z,4.52
2019-03-15T04:09:24.348Z,4.51
2019-03-15T04:11:56.452Z,4.51
2019-03-15T04:14:26.857Z,4.52
2019-03-15T04:16:58.841Z,4.52
2019-03-15T04:19:29.907Z,4.53
2019-03-15T04:22:00.096Z,4.53
2019-03-15T04:24:30.323Z,4.55
2019-03-15T04:27:00.561Z,4.58
2019-03-15T04:29:30.728Z,4.61
2019-03-15T04:32:01.764Z,4.64
2019-03-15T04:34:32.001Z,4.66
2019-03-15T04:37:02.183Z,4.68
2019-03-15T04:39:32.367Z,4.68
2019-03-15T04:42:02.716Z,4.68
2019-03-15T04:44:32.886Z,4.67
2019-03-15T04:47:03.037Z,4.65
2019-03-15T04:49:34.071Z,4.65
2019-03-15T04:54:36.085Z,4.66
2019-03-15T04:57:07.880Z,4.61
2019-03-15T04:59:37.987Z,4.60
2019-03-15T05:02:08.308Z,4.62
2019-03-15T05:04:40.087Z,4.62
2019-03-15T05:07:10.225Z,4.65
2019-03-15T05:09:40.418Z,4.66
2019-03-15T05:12:11.339Z,4.66
2019-03-15T05:14:41.570Z,4.68
2019-03-15T05:17:11.727Z,4.67
2019-03-15T05:19:41.909Z,4.68
2019-03-15T05:22:12.102Z,4.69
2019-03-15T05:24:43.080Z,4.71
2019-03-15T05:27:14.000Z,4.72
2019-03-15T05:29:44.143Z,4.73
2019-03-15T05:32:15.137Z,4.73
2019-03-15T05:34:45.497Z,4.74
2019-03-15T05:37:15.653Z,4.75
2019-03-15T05:39:46.777Z,4.76
2019-03-15T05:42:17.048Z,4.77
2019-03-15T05:44:48.062Z,4.79
2019-03-15T05:47:18.204Z,4.80
2019-03-15T05:49:48.376Z,4.83
2019-03-15T05:52:19.374Z,4.85
2019-03-15T05:54:49.662Z,4.87
2019-03-15T05:57:19.854Z,4.89
2019-03-15T05:59:49.977Z,4.89
2019-03-15T06:02:20.206Z,4.91
2019-03-15T06:04:50.531Z,4.91
2019-03-15T06:07:20.782Z,4.95
2019-03-15T06:09:51.732Z,4.99
2019-03-15T06:12:21.917Z,5.01
2019-03-15T06:14:52.897Z,5.02
2019-03-15T06:17:23.192Z,5.03
2019-03-15T06:19:53.476Z,5.09
2019-03-15T06:22:23.628Z,5.10
2019-03-15T06:24:53.748Z,5.14
2019-03-15T06:27:23.950Z,5.18
2019-03-15T06:29:54.125Z,5.23
2019-03-15T06:32:25.169Z,5.25
2019-03-15T06:34:55.409Z,5.28
2019-03-15T06:37:25.609Z,5.29
2019-03-15T06:39:55.775Z,5.28
2019-03-15T06:42:26.085Z,5.25
2019-03-15T06:44:58.208Z,5.24
2019-03-15T06:47:28.121Z,5.26
2019-03-15T06:49:58.353Z,5.28
2019-03-15T06:52:30.943Z,5.31
2019-03-15T06:55:05.118Z,5.33
2019-03-15T06:57:33.651Z,5.35
2019-03-15T07:00:04.082Z,5.37
2019-03-15T07:02:34.219Z,5.38
2019-03-15T07:05:04.641Z,5.40
2019-03-15T07:07:35.102Z,5.42
2019-03-15T07:10:05.607Z,5.44
2019-03-15T07:12:35.729Z,5.45
2019-03-15T07:15:07.004Z,5.44
2019-03-15T07:17:37.119Z,5.43
2019-03-15T07:20:10.103Z,5.44
2019-03-15T07:22:41.252Z,5.45
2019-03-15T07:25:12.323Z,5.46
2019-03-15T07:27:43.169Z,5.47
2019-03-15T07:30:16.143Z,5.48
2019-03-15T07:32:46.322Z,5.49
2019-03-15T07:35:16.486Z,5.49
2019-03-15T07:37:47.943Z,5.51
2019-03-15T07:40:18.369Z,5.53
2019-03-15T07:42:48.844Z,5.54
2019-03-15T07:45:19.005Z,5.53
2019-03-15T07:47:49.214Z,5.51
2019-03-15T07:50:19.379Z,5.51
2019-03-15T07:52:49.536Z,5.51
2019-03-15T07:55:20.487Z,5.52
2019-03-15T07:57:50.740Z,5.53
2019-03-15T08:00:21.070Z,5.54
2019-03-15T08:02:52.152Z,5.56
2019-03-15T08:05:22.376Z,5.60
2019-03-15T08:07:54.170Z,5.61
2019-03-15T08:10:24.427Z,5.64
2019-03-15T08:12:54.646Z,5.65
2019-03-15T08:15:27.033Z,5.70
2019-03-15T08:17:57.174Z,5.72
2019-03-15T08:20:27.358Z,5.73
2019-03-15T08:22:57.696Z,5.75
2019-03-15T08:25:28.974Z,5.76
2019-03-15T08:27:59.252Z,5.78
2019-03-15T08:30:31.023Z,5.79
2019-03-15T08:33:09.964Z,5.82
2019-03-15T08:35:34.392Z,5.86
2019-03-15T08:38:05.475Z,5.88
2019-03-15T08:40:35.767Z,5.91
2019-03-15T08:43:06.016Z,5.94
2019-03-15T08:45:36.222Z,5.95
2019-03-15T08:48:06.459Z,5.98
2019-03-15T08:50:36.692Z,6.01
2019-03-15T08:53:09.422Z,6.03
2019-03-15T08:55:40.401Z,6.07
2019-03-15T08:58:15.823Z,6.11
2019-03-15T09:00:43.516Z,6.12
2019-03-15T09:03:27.083Z,6.12
2019-03-15T09:05:48.148Z,6.12
2019-03-15T09:08:19.103Z,6.15
2019-03-15T09:10:49.276Z,6.19
2019-03-15T09:13:19.470Z,6.21
2019-03-15T09:15:49.658Z,6.24
2019-03-15T09:18:19.811Z,6.26
2019-03-15T09:20:50.115Z,6.32
2019-03-15T09:23:20.385Z,6.31
2019-03-15T09:25:52.240Z,6.32
2019-03-15T09:28:22.408Z,6.33
2019-03-15T09:30:53.484Z,6.32
2019-03-15T09:33:24.486Z,6.29
2019-03-15T09:35:54.665Z,6.27
2019-03-15T09:38:24.928Z,6.25
2019-03-15T09:40:55.140Z,6.23
2019-03-15T09:43:25.397Z,6.22
2019-03-15T09:45:55.853Z,6.22
2019-03-15T09:48:26.315Z,6.21
2019-03-15T09:50:58.164Z,6.20
2019-03-15T09:53:28.547Z,6.21
2019-03-15T09:55:58.882Z,6.18
2019-03-15T09:58:29.146Z,6.15
2019-03-15T10:01:01.323Z,6.15
2019-03-15T10:03:31.582Z,6.16
2019-03-15T10:06:14.356Z,6.14
2019-03-15T10:08:33.930Z,6.13
2019-03-15T10:11:04.183Z,6.08
2019-03-15T10:13:35.157Z,6.04
2019-03-15T10:16:05.368Z,6.01
2019-03-15T10:18:35.666Z,6.02
2019-03-15T10:21:09.071Z,6.02
2019-03-15T10:23:37.796Z,6.01
2019-03-15T10:26:08.720Z,5.96
2019-03-15T10:28:38.927Z,5.87
2019-03-15T10:31:09.009Z,5.80
2019-03-15T10:33:50.299Z,5.72
2019-03-15T10:36:12.835Z,5.69
2019-03-15T10:38:44.016Z,5.69
2019-03-15T10:41:15.127Z,5.71
2019-03-15T10:43:47.062Z,5.71
2019-03-15T10:46:18.913Z,5.63
2019-03-15T10:48:49.251Z,5.60
2019-03-15T10:51:19.425Z,5.57
2019-03-15T10:53:49.725Z,5.57
2019-03-15T10:56:20.908Z,5.63
2019-03-15T10:58:51.183Z,5.68
2019-03-15T11:01:22.495Z,5.72
2019-03-15T11:03:52.830Z,5.70
2019-03-15T11:06:23.214Z,5.72
2019-03-15T11:08:53.600Z,5.72
2019-03-15T11:11:23.996Z,5.72
2019-03-15T11:13:55.677Z,5.78
2019-03-15T11:16:26.179Z,5.76
2019-03-15T11:18:56.510Z,5.80
2019-03-15T11:21:26.808Z,5.81
2019-03-15T11:23:57.051Z,5.86
2019-03-15T11:26:27.254Z,5.83
2019-03-15T11:28:58.939Z,5.86
2019-03-15T11:31:29.171Z,5.87
2019-03-15T11:33:59.428Z,5.89
2019-03-15T11:36:30.465Z,5.90
2019-03-15T11:39:00.678Z,5.90
2019-03-15T11:41:30.955Z,5.92
2019-03-15T11:44:01.123Z,5.89
2019-03-15T11:46:31.357Z,5.90
2019-03-15T11:49:01.564Z,5.95
2019-03-15T11:51:31.802Z,5.98
2019-03-15T11:54:02.057Z,5.98
2019-03-15T11:56:33.146Z,6.05
2019-03-15T11:59:03.370Z,6.06
2019-03-15T12:01:33.684Z,6.09
2019-03-15T12:04:03.959Z,6.13
2019-03-15T12:06:35.849Z,6.19
2019-03-15T12:09:07.908Z,6.25
2019-03-15T12:11:39.097Z,6.30
2019-03-15T12:14:09.408Z,6.32
2019-03-15T12:16:39.703Z,6.37
2019-03-15T12:19:10.673Z,6.43
2019-03-15T12:21:40.868Z,6.47
2019-03-15T12:24:11.114Z,6.52
2019-03-15T12:26:41.372Z,6.58
2019-03-15T12:29:14.099Z,6.61
2019-03-15T12:31:45.828Z,6.64
2019-03-15T12:34:16.022Z,6.69
2019-03-15T12:36:47.040Z,6.74
2019-03-15T12:39:18.081Z,6.80
2019-03-15T12:41:48.331Z,6.85
2019-03-15T12:44:19.259Z,6.91
2019-03-15T12:46:49.430Z,6.96
2019-03-15T12:49:19.856Z,7.02
2019-03-15T12:51:52.677Z,7.09
2019-03-15T12:54:23.663Z,7.15
2019-03-15T12:56:54.313Z,7.24
2019-03-15T12:59:25.890Z,7.33
2019-03-15T13:01:57.632Z,7.41
2019-03-15T13:04:28.629Z,7.51
2019-03-15T13:06:59.767Z,7.60
2019-03-15T13:09:30.142Z,7.68
2019-03-15T13:12:01.885Z,7.75
2019-03-15T13:14:32.089Z,7.84
2019-03-15T13:17:02.310Z,7.88
2019-03-15T13:19:32.445Z,7.96
2019-03-15T13:22:02.612Z,8.00
2019-03-15T13:24:32.859Z,8.03
2019-03-15T13:27:07.734Z,8.07
2019-03-15T13:29:34.987Z,8.07
2019-03-15T13:32:05.193Z,8.16
2019-03-15T13:34:36.145Z,8.19
2019-03-15T13:37:06.285Z,8.22
2019-03-15T13:39:36.534Z,8.22
2019-03-15T13:42:07.479Z,8.30
2019-03-15T13:44:38.549Z,8.34
2019-03-15T13:47:10.597Z,8.35
2019-03-15T13:49:40.922Z,8.38
2019-03-15T13:52:11.916Z,8.42
2019-03-15T13:54:42.240Z,8.45
2019-03-15T13:57:21.280Z,8.51
2019-03-15T13:59:44.559Z,8.54
2019-03-15T14:02:16.522Z,8.57
2019-03-15T14:04:47.031Z,8.64
2019-03-15T14:07:19.865Z,8.63
2019-03-15T14:09:49.092Z,8.73
2019-03-15T14:12:19.317Z,8.73
2019-03-15T14:14:49.671Z,8.77
2019-03-15T14:17:20.072Z,8.81
2019-03-15T14:19:50.215Z,8.86
2019-03-15T14:22:21.365Z,8.89
2019-03-15T14:24:51.562Z,8.92
2019-03-15T14:27:36.483Z,8.95
2019-03-15T14:29:54.686Z,8.98
2019-03-15T14:32:25.004Z,8.99
2019-03-15T14:34:56.278Z,8.99
2019-03-15T14:37:27.379Z,8.98
2019-03-15T14:39:57.891Z,8.98
2019-03-15T14:42:28.093Z,9.01
2019-03-15T14:44:58.180Z,9.04
2019-03-15T14:47:28.451Z,9.05
2019-03-15T14:49:58.684Z,9.06
2019-03-15T14:52:29.705Z,9.07
2019-03-15T14:55:00.011Z,9.08
2019-03-15T14:57:32.271Z,9.09
2019-03-15T15:00:02.597Z,9.10
2019-03-15T15:02:32.885Z,9.13
2019-03-15T15:05:03.143Z,9.12
2019-03-15T15:07:34.338Z,9.14
2019-03-15T15:10:05.546Z,9.13
2019-03-15T15:12:35.991Z,9.15
2019-03-15T15:15:07.090Z,9.16
2019-03-15T15:17:38.351Z,9.18
2019-03-15T15:20:08.824Z,9.19
2019-03-15T15:22:39.604Z,9.21
2019-03-15T15:25:10.171Z,9.19
2019-03-15T15:27:40.309Z,9.19
2019-03-15T15:30:11.533Z,9.21
2019-03-15T15:32:41.844Z,9.22
2019-03-15T15:35:12.029Z,9.23
2019-03-15T15:37:42.432Z,9.24
2019-03-15T15:40:13.364Z,9.23
2019-03-15T15:42:43.553Z,9.21
2019-03-15T15:45:14.339Z,9.22
2019-03-15T15:47:46.252Z,9.24
2019-03-15T15:50:16.984Z,9.23
2019-03-15T15:52:47.402Z,9.24
2019-03-15T15:55:18.657Z,9.25
2019-03-15T15:57:49.645Z,9.27
2019-03-15T16:00:20.721Z,9.26
2019-03-15T16:02:51.027Z,9.28
2019-03-15T16:05:21.385Z,9.29
2019-03-15T16:07:51.692Z,9.29
2019-03-15T16:10:21.835Z,9.29
2019-03-15T16:12:52.035Z,9.29
2019-03-15T16:15:23.458Z,9.30
2019-03-15T16:17:53.710Z,9.29
2019-03-15T16:20:23.931Z,9.30
2019-03-15T16:22:54.096Z,9.28
2019-03-15T16:25:24.239Z,9.26
2019-03-15T16:27:54.446Z,9.25
2019-03-15T16:30:24.583Z,9.25
2019-03-15T16:32:54.959Z,9.28
2019-03-15T16:35:25.203Z,9.26
2019-03-15T16:37:55.446Z,9.27
2019-03-15T16:40:25.622Z,9.31
2019-03-15T16:42:55.887Z,9.32
2019-03-15T16:45:26.085Z,9.32
2019-03-15T16:47:56.387Z,9.32
2019-03-15T16:50:26.521Z,9.32
2019-03-15T16:52:56.706Z,9.32
2019-03-15T16:55:27.134Z,9.33
2019-03-15T16:57:57.627Z,9.33
2019-03-15T17:00:28.033Z,9.35
2019-03-15T17:02:58.229Z,9.35
2019-03-15T17:05:28.454Z,9.36
2019-03-15T17:07:58.673Z,9.36
2019-03-15T17:10:28.867Z,9.36
2019-03-15T17:12:59.055Z,9.37
2019-03-15T17:15:29.265Z,9.38
2019-03-15T17:17:59.513Z,9.41
2019-03-15T17:20:29.769Z,9.41
2019-03-15T17:23:00.031Z,9.40
2019-03-15T17:25:30.212Z,9.39
2019-03-15T17:28:00.541Z,9.39
2019-03-15T17:30:30.718Z,9.41
2019-03-15T17:33:01.040Z,9.42
2019-03-15T17:35:31.277Z,9.45
2019-03-15T17:38:01.702Z,9.47
2019-03-15T17:40:31.956Z,9.45
2019-03-15T17:43:02.182Z,9.46
2019-03-15T17:45:32.393Z,9.46
2019-03-15T17:48:03.219Z,9.49
2019-03-15T17:50:33.386Z,9.46
2019-03-15T17:53:03.787Z,9.46
2019-03-15T17:55:34.053Z,9.45
2019-03-15T17:58:04.304Z,9.44
2019-03-15T18:00:40.834Z,9.43
2019-03-15T18:03:20.802Z,9.46
2019-03-15T18:05:43.581Z,9.39
2019-03-15T18:08:13.827Z,9.42
2019-03-15T18:10:44.997Z,9.42
2019-03-15T18:13:15.365Z,9.40
2019-03-15T18:15:45.694Z,9.41
2019-03-15T18:18:15.935Z,9.40
2019-03-15T18:20:46.954Z,9.37
2019-03-15T18:23:17.274Z,9.36
2019-03-15T18:25:48.359Z,9.34
2019-03-15T18:28:18.691Z,9.33
2019-03-15T18:30:50.817Z,9.34
2019-03-15T18:33:21.205Z,9.38
2019-03-15T18:35:51.687Z,9.40
2019-03-15T18:38:22.042Z,9.41
2019-03-15T18:40:52.470Z,9.43
2019-03-15T18:43:22.801Z,9.44
2019-03-15T18:45:53.070Z,9.46
2019-03-15T18:48:23.600Z,9.48
2019-03-15T18:50:54.091Z,9.49
2019-03-15T18:53:24.831Z,9.49
2019-03-15T18:55:56.457Z,9.48
2019-03-15T18:58:26.757Z,9.47
2019-03-15T19:00:58.864Z,9.46
2019-03-15T19:03:29.218Z,9.51
2019-03-15T19:06:02.865Z,9.51
2019-03-15T19:08:33.165Z,9.50
2019-03-15T19:11:03.817Z,9.51
2019-03-15T19:13:36.544Z,9.52
2019-03-15T19:16:19.523Z,9.49
2019-03-15T19:18:59.253Z,9.51
2019-03-15T19:21:31.309Z,9.51
2019-03-15T19:24:01.913Z,9.53
2019-03-15T19:26:33.388Z,9.56
2019-03-15T19:29:04.776Z,9.59
2019-03-15T19:31:35.206Z,9.61
2019-03-15T19:34:05.587Z,9.58
2019-03-15T19:36:35.962Z,9.58
2019-03-15T19:39:08.156Z,9.57
2019-03-15T19:41:38.639Z,9.57
2019-03-15T19:44:08.946Z,9.57
2019-03-15T19:46:39.264Z,9.59
2019-03-15T19:49:09.838Z,9.60
2019-03-15T19:51:41.770Z,9.60
2019-03-15T19:54:12.288Z,9.62
2019-03-15T19:56:43.558Z,9.63
2019-03-15T19:59:18.251Z,9.64
2019-03-15T20:01:48.602Z,9.68
2019-03-15T20:04:19.067Z,9.67
2019-03-15T20:06:49.955Z,9.66
2019-03-15T23:46:20.344Z,9.93
2019-03-15T23:48:50.520Z,9.90
2019-03-15T23:51:20.775Z,9.87
2019-03-15T23:53:50.921Z,9.88
2019-03-15T23:56:21.068Z,9.87
2019-03-15T23:58:51.250Z,9.86
